Holly Hill, Florida
Current Conditions -  °F | °C
As of 6:53 AM on Thursday 23 Oct 2014 (Local Time) from KDAB Reporting Station
Scattered Clouds Scattered Clouds  
Wind Chill: 59°   Ceiling: Unl
Heat Index: 59°   Visibility: 10mi
Dew Point: 55°   Wind: 3mph
Humidity: 87%   Direction: 300°WNW
Pressure: 30"   Gusts: NA
Location:  29.25°N, 81.04°W
Report Text: KDAB 231053Z 30003KT 10SM FEW040 FEW060 SCT150 15/13 A3000 RMK AO2 SLP157 T01500128
Loading
Personal Weather Stations






























Interactive Weather Map New forecast layout! Learn more

10-Day Weather Forecast

Advertisements
Track Severe Weather on mobile